Stations météo

réclame
Mon MeteoGroup
Melle, Belgique (6434): Température de l'air & dewpoint: 18.11.2017 17:00:00 - 24.11.2017 17:00:00 (CET)Melle, Belgique (6434): Vitesse du vent & gusts: 18.11.2017 17:00:00 - 24.11.2017 17:00:00 (CET)Melle, Belgique (6434): Direction du vent: 18.11.2017 17:00:00 - 24.11.2017 17:00:00 (CET)Melle, Belgique (6434): reduced air pressure: 18.11.2017 17:00:00 - 24.11.2017 17:00:00 (CET)Melle, Belgique (6434): Ensoleillement: 18.11.2017 17:00:00 - 24.11.2017 17:00:00 (CET)Melle, Belgique (6434): Quantités de précipitations: 18.11.2017 17:00:00 - 24.11.2017 17:00:00 (CET)
Date & Time tt [°C] td [°C] ff [km/h] ff [knt] fx [km/h] fx [knt] dd ppp [hPa] sd [min] rr [mm]
24.11.2017 17:00:00 - - - - - - - - - -
24.11.2017 16:00:00 8,5 6,1 4 2 8 5 S 1011,9 0 0,0
24.11.2017 15:00:00 9,2 6,0 6 3 20 11 WSW 1011,8 21 0,0
24.11.2017 14:00:00 10,2 5,8 14 7 19 11 W 1011,7 47 0,0
24.11.2017 13:00:00 9,7 6,7 11 6 17 9 W 1011,9 29 0,0
24.11.2017 12:00:00 9,2 7,0 12 6 19 10 WSW 1011,3 57 0,0
24.11.2017 11:00:00 8,0 7,0 10 5 16 9 WSW 1011,0 57 0,0
24.11.2017 10:00:00 6,7 6,2 6 3 12 7 W 1010,4 3 0,0
24.11.2017 09:00:00 6,9 6,7 6 3 9 5 SW 1009,4 0 0,0
24.11.2017 08:00:00 7,1 7,0 6 3 11 6 W 1008,3 0 0,0
24.11.2017 07:00:00 7,1 7,1 7 4 10 6 WNW 1007,6 0 0,0
24.11.2017 06:00:00 6,4 6,0 5 3 10 5 NW 1006,4 0 1,4
24.11.2017 05:00:00 7,2 6,9 5 3 10 5 S 1006,9 0 3,4
24.11.2017 04:00:00 7,5 7,0 7 4 10 5 SSW 1007,4 0 0,6
24.11.2017 03:00:00 8,2 7,2 4 2 18 10 WNW 1007,6 0 1,1
24.11.2017 02:00:00 8,7 7,1 7 4 17 9 SSW 1007,8 0 0,4
24.11.2017 01:00:00 8,2 6,5 11 6 18 10 S 1008,1 0 0,0
24.11.2017 00:00:00 8,1 6,2 11 6 16 9 S 1008,6 0 0,0
23.11.2017 23:00:00 8,9 6,5 8 5 22 12 SSW 1009,3 0 0,0
23.11.2017 22:00:00 9,0 6,5 12 7 19 11 SW 1009,2 0 0,0
23.11.2017 21:00:00 8,7 6,2 10 5 23 13 SW 1009,0 0 0,0
23.11.2017 20:00:00 8,5 5,9 11 6 22 12 SSW 1008,4 0 0,0
23.11.2017 19:00:00 8,3 5,4 11 6 19 10 SSW 1008,0 0 0,0
23.11.2017 18:00:00 9,6 5,2 10 5 36 20 SW 1007,1 0 0,0
23.11.2017 17:00:00 11,0 6,0 16 9 39 21 WSW 1006,3 29 0,0
23.11.2017 16:00:00 12,0 7,0 24 13 44 24 W 1005,2 23 0,0
23.11.2017 15:00:00 12,4 8,6 16 8 49 26 W 1004,4 9 0,0
23.11.2017 14:00:00 12,9 10,5 22 12 71 39 W 1003,0 1 0,6
23.11.2017 13:00:00 15,2 11,1 32 18 59 32 SW 1001,1 12 0,1
23.11.2017 12:00:00 14,5 10,7 35 19 61 33 SW 1000,7 7 0,1
23.11.2017 11:00:00 13,7 10,5 33 18 57 31 SW 1000,0 4 0,1
23.11.2017 10:00:00 12,8 10,5 32 17 60 32 SW 998,9 0 0,1
23.11.2017 09:00:00 13,2 8,9 40 22 64 34 SSW 997,3 0 0,1
23.11.2017 08:00:00 13,7 7,3 36 19 77 41 SSW 996,1 0 0,1
23.11.2017 07:00:00 13,4 6,6 40 21 64 34 SSW 996,0 0 0,1
23.11.2017 06:00:00 12,4 5,7 31 17 59 32 S 996,1 0 0,0
23.11.2017 05:00:00 12,5 5,6 33 18 56 30 S 996,6 0 0,1
23.11.2017 04:00:00 12,6 5,1 29 16 50 27 S 997,6 0 0,0
23.11.2017 03:00:00 12,9 4,9 32 18 50 27 S 997,9 0 0,1
23.11.2017 02:00:00 12,4 5,0 35 19 52 28 S 998,3 0 0,0
23.11.2017 01:00:00 12,1 5,1 29 16 47 25 S 998,8 0 0,0
23.11.2017 00:00:00 11,7 4,9 29 16 50 27 S 999,8 0 0,1
22.11.2017 23:00:00 11,9 4,7 31 17 52 28 SSW 1000,2 0 0,0
22.11.2017 22:00:00 11,2 4,8 27 14 42 23 S 1000,5 0 0,0
22.11.2017 21:00:00 11,0 5,1 29 15 48 26 S 1000,7 0 0,0
22.11.2017 20:00:00 10,9 5,4 31 17 47 26 S 1001,6 0 0,1
22.11.2017 19:00:00 10,7 5,9 25 14 43 23 S 1002,5 0 0,1
22.11.2017 18:00:00 10,7 6,0 19 10 40 21 S 1003,1 0 0,0
22.11.2017 17:00:00 11,6 6,1 24 13 42 23 S 1003,2 39 0,0
22.11.2017 16:00:00 12,3 6,7 29 16 44 24 S 1004,1 60 0,0
22.11.2017 15:00:00 13,0 7,1 26 14 42 23 S 1004,8 60 0,0
22.11.2017 14:00:00 12,5 7,9 26 14 41 22 S 1005,6 60 0,0
22.11.2017 13:00:00 12,0 8,0 25 14 43 23 SSW 1006,3 60 0,0
22.11.2017 12:00:00 11,7 8,2 23 12 42 23 S 1007,0 60 0,0
22.11.2017 11:00:00 10,5 8,0 27 15 44 24 SSW 1007,6 60 0,0
22.11.2017 10:00:00 10,2 8,0 29 15 46 25 SSW 1007,5 33 0,1
22.11.2017 09:00:00 10,1 8,1 23 12 41 22 SSW 1007,7 0 0,0
22.11.2017 08:00:00 10,7 8,4 26 14 41 22 SSW 1007,7 0 0,1
22.11.2017 07:00:00 10,7 8,3 25 14 40 22 SSW 1007,5 0 0,0
22.11.2017 06:00:00 11,0 8,4 23 13 35 19 SSW 1007,6 0 0,0
22.11.2017 05:00:00 10,9 8,4 23 13 41 22 SSW 1008,1 0 0,0
22.11.2017 04:00:00 11,2 8,4 29 15 43 23 SSW 1008,2 0 0,0
22.11.2017 03:00:00 11,2 8,3 27 15 44 24 SSW 1008,9 0 0,1
22.11.2017 02:00:00 11,2 8,3 26 14 43 23 SSW 1009,0 0 0,0
22.11.2017 01:00:00 11,1 8,3 25 14 41 22 SW 1009,8 0 0,0
22.11.2017 00:00:00 10,9 8,4 26 14 41 22 SSW 1009,7 0 0,1
21.11.2017 23:00:00 10,7 8,4 23 13 42 23 SSW 1010,0 0 0,0
21.11.2017 22:00:00 10,7 8,3 23 13 42 23 SW 1010,6 0 0,1
21.11.2017 21:00:00 10,7 8,4 23 12 41 22 SW 1011,2 0 0,0
21.11.2017 20:00:00 10,7 8,4 24 13 39 21 SSW 1011,1 0 0,0
21.11.2017 19:00:00 10,6 8,5 22 12 36 19 SSW 1011,4 0 0,0
21.11.2017 18:00:00 10,6 8,7 21 12 33 18 SSW 1011,8 0 0,0
21.11.2017 17:00:00 10,7 8,9 20 11 34 19 SSW 1012,0 0 0,0
21.11.2017 16:00:00 11,1 9,1 20 11 34 18 SSW 1012,4 0 0,0
21.11.2017 15:00:00 - - - - - - - - 0 -
21.11.2017 14:00:00 11,2 9,5 18 10 34 19 SW 1012,9 0 0,0
21.11.2017 13:00:00 11,0 9,7 18 10 33 18 SW 1013,3 0 0,0
21.11.2017 12:00:00 11,1 10,0 19 10 34 18 SW 1013,9 0 0,0
21.11.2017 11:00:00 11,0 10,6 22 12 37 20 SW 1013,9 0 0,3
21.11.2017 10:00:00 11,2 11,1 21 11 35 19 SW 1013,7 0 0,6
21.11.2017 09:00:00 11,8 11,6 17 9 31 17 WSW 1013,2 0 0,3
21.11.2017 08:00:00 11,9 11,9 14 7 27 15 WSW 1013,0 0 0,3
21.11.2017 07:00:00 11,9 11,8 14 8 32 18 W 1012,9 0 0,2
21.11.2017 06:00:00 11,9 11,8 16 9 31 17 W 1012,9 0 0,4
21.11.2017 05:00:00 11,9 11,7 16 9 28 15 W 1013,1 0 0,9
21.11.2017 04:00:00 11,9 11,8 15 8 26 14 W 1013,2 0 0,9
21.11.2017 03:00:00 12,0 11,8 11 6 26 14 W 1013,3 0 0,0
21.11.2017 02:00:00 12,0 11,5 14 8 27 15 W 1013,4 0 0,0
21.11.2017 01:00:00 12,0 11,5 14 8 27 15 W 1013,7 0 0,0
21.11.2017 00:00:00 12,0 11,3 14 8 34 18 W 1013,5 0 0,0
20.11.2017 23:00:00 11,9 11,3 18 10 34 18 W 1013,3 0 0,0
20.11.2017 22:00:00 11,6 11,4 14 7 23 13 W 1013,3 0 0,8
20.11.2017 21:00:00 10,4 10,4 10 5 24 13 SW 1013,4 0 1,1
20.11.2017 20:00:00 10,3 10,2 14 8 31 17 WSW 1013,4 0 0,5
20.11.2017 19:00:00 10,0 10,0 21 12 35 19 SW 1013,0 0 1,0
20.11.2017 18:00:00 10,0 9,8 22 12 36 19 SW 1013,2 0 0,2
20.11.2017 17:00:00 9,9 9,7 19 10 36 20 SW 1013,8 0 0,0
20.11.2017 16:00:00 9,6 9,1 23 12 37 20 SW 1014,0 0 0,0
20.11.2017 15:00:00 8,6 8,4 21 12 33 18 SW 1014,7 0 0,1
20.11.2017 14:00:00 7,7 7,5 21 11 36 20 SW 1015,7 0 0,3
20.11.2017 13:00:00 7,1 6,9 23 12 34 18 SW 1016,6 0 0,1
20.11.2017 12:00:00 6,2 5,9 19 10 34 18 SW 1017,6 0 0,5
20.11.2017 11:00:00 5,5 5,2 18 10 28 15 S 1018,0 0 0,6
20.11.2017 10:00:00 4,5 3,6 18 10 27 14 SSW 1018,9 0 0,1
20.11.2017 09:00:00 4,1 2,8 12 7 17 9 S 1019,8 0 0,1
20.11.2017 08:00:00 4,3 2,2 12 7 19 10 SSW 1020,7 0 0,0
20.11.2017 07:00:00 4,2 2,1 11 6 19 10 SW 1021,0 0 0,0
20.11.2017 06:00:00 4,0 2,0 11 6 19 11 SW 1021,2 0 0,0
20.11.2017 05:00:00 3,8 1,9 9 5 18 10 SSW 1021,5 0 0,0
20.11.2017 04:00:00 3,4 1,7 11 6 17 9 SSW 1022,3 0 0,0
20.11.2017 03:00:00 3,6 1,8 11 6 16 9 SW 1022,6 0 0,0
20.11.2017 02:00:00 3,5 1,9 11 6 19 10 SW 1023,1 0 0,0
20.11.2017 01:00:00 3,6 2,1 11 6 19 10 WSW 1023,7 0 0,0
20.11.2017 00:00:00 3,2 2,0 11 6 16 8 WSW 1024,0 0 0,0
19.11.2017 23:00:00 2,7 1,5 10 5 14 8 WSW 1024,0 0 0,0
19.11.2017 22:00:00 3,1 1,8 10 5 16 9 WSW 1024,3 0 0,0
19.11.2017 21:00:00 3,6 2,2 10 5 16 9 WSW 1023,7 0 0,0
19.11.2017 20:00:00 4,2 2,6 10 5 19 11 W 1023,5 0 0,0
19.11.2017 19:00:00 4,9 2,8 11 6 20 11 W 1023,5 0 0,0
19.11.2017 18:00:00 5,5 2,9 9 5 19 11 W 1022,9 0 0,0
19.11.2017 17:00:00 6,9 3,3 12 7 22 12 W 1022,6 37 0,0
19.11.2017 16:00:00 8,2 3,9 14 7 30 16 W 1022,4 40 0,0
19.11.2017 15:00:00 8,6 3,3 13 7 25 14 WNW 1022,0 32 0,0
19.11.2017 14:00:00 8,8 3,5 14 8 29 16 NW 1021,9 37 0,0
19.11.2017 13:00:00 8,9 3,9 18 10 31 17 WNW 1021,9 46 0,0
19.11.2017 12:00:00 8,4 4,0 16 9 28 15 WNW 1021,7 60 0,0
19.11.2017 11:00:00 6,9 3,1 16 9 24 13 W 1021,3 60 0,0
19.11.2017 10:00:00 4,6 1,7 11 6 19 11 W 1020,8 60 0,0
19.11.2017 09:00:00 3,3 0,5 12 7 17 9 W 1020,4 21 0,0
19.11.2017 08:00:00 3,1 0,1 11 6 19 10 W 1019,9 0 0,0
19.11.2017 07:00:00 3,7 0,3 11 6 15 8 W 1019,4 0 0,0
19.11.2017 06:00:00 3,9 0,2 6 3 14 7 W 1019,0 0 0,0
19.11.2017 05:00:00 4,5 0,1 10 6 16 9 W 1019,0 0 0,0
19.11.2017 04:00:00 5,2 0,4 10 6 17 9 W 1018,6 0 0,0
19.11.2017 03:00:00 6,0 1,1 10 6 17 9 WNW 1018,6 0 0,0
19.11.2017 02:00:00 6,7 2,8 9 5 16 9 W 1018,2 0 0,0
19.11.2017 01:00:00 6,9 4,0 7 4 21 12 WNW 1018,3 0 0,0
19.11.2017 00:00:00 7,6 6,0 11 6 20 11 W 1018,1 0 0,0
18.11.2017 23:00:00 7,6 6,2 10 6 18 10 W 1018,1 0 0,0
18.11.2017 22:00:00 7,4 6,2 10 6 16 9 W 1018,3 0 0,0
18.11.2017 21:00:00 7,4 6,5 9 5 18 10 WSW 1018,5 0 0,0
18.11.2017 20:00:00 7,7 6,6 11 6 22 12 WSW 1018,8 0 0,0
18.11.2017 19:00:00 7,7 6,6 14 8 26 14 WSW 1019,3 0 0,0
18.11.2017 18:00:00 8,2 6,4 18 10 29 16 W 1019,8 0 0,0
18.11.2017 17:00:00 8,8 6,1 13 7 36 19 W 1019,9 0 0,0

tt = Température de l'air
td = dewpoint
ff = Vitesse du vent
fx = gusts
dd = Direction du vent
ppp = reduced air pressure
sd = Ensoleillement
rr = Quantités de précipitations

stations d'obs. à proximité